sensor_id;sensor_type;location;lat;lon;timestamp;P1;durP1;ratioP1;P2;durP2;ratioP2
20449;SDS011;10384;51.940;8.432;2023-02-01T00:01:27;9.30;;;2.13;;
20449;SDS011;10384;51.940;8.432;2023-02-01T00:03:53;8.53;;;2.00;;
20449;SDS011;10384;51.940;8.432;2023-02-01T00:06:19;9.80;;;2.40;;
20449;SDS011;10384;51.940;8.432;2023-02-01T00:08:45;10.10;;;2.13;;
20449;SDS011;10384;51.940;8.432;2023-02-01T00:11:11;15.93;;;2.40;;
20449;SDS011;10384;51.940;8.432;2023-02-01T00:13:38;13.00;;;2.07;;
20449;SDS011;10384;51.940;8.432;2023-02-01T00:18:31;14.90;;;3.10;;
20449;SDS011;10384;51.940;8.432;2023-02-01T00:20:57;10.33;;;2.30;;
20449;SDS011;10384;51.940;8.432;2023-02-01T00:23:23;12.67;;;1.83;;
20449;SDS011;10384;51.940;8.432;2023-02-01T00:25:49;17.43;;;2.70;;
20449;SDS011;10384;51.940;8.432;2023-02-01T00:28:15;11.97;;;2.10;;
20449;SDS011;10384;51.940;8.432;2023-02-01T00:30:41;12.70;;;2.83;;
20449;SDS011;10384;51.940;8.432;2023-02-01T00:33:07;15.13;;;2.37;;
20449;SDS011;10384;51.940;8.432;2023-02-01T00:35:33;11.50;;;1.87;;
20449;SDS011;10384;51.940;8.432;2023-02-01T00:37:59;11.60;;;2.10;;
20449;SDS011;10384;51.940;8.432;2023-02-01T00:40:26;14.10;;;2.20;;
20449;SDS011;10384;51.940;8.432;2023-02-01T00:42:52;14.63;;;3.07;;
20449;SDS011;10384;51.940;8.432;2023-02-01T00:45:18;9.60;;;2.60;;
20449;SDS011;10384;51.940;8.432;2023-02-01T00:47:44;11.47;;;2.13;;
20449;SDS011;10384;51.940;8.432;2023-02-01T00:50:10;14.37;;;3.77;;
20449;SDS011;10384;51.940;8.432;2023-02-01T00:52:36;12.03;;;2.60;;
20449;SDS011;10384;51.940;8.432;2023-02-01T00:55:02;9.90;;;2.20;;
20449;SDS011;10384;51.940;8.432;2023-02-01T00:57:28;8.90;;;2.20;;
20449;SDS011;10384;51.940;8.432;2023-02-01T00:59:54;12.40;;;3.37;;
20449;SDS011;10384;51.940;8.432;2023-02-01T01:02:20;17.80;;;2.60;;
20449;SDS011;10384;51.940;8.432;2023-02-01T01:04:46;17.30;;;3.20;;
20449;SDS011;10384;51.940;8.432;2023-02-01T01:07:12;15.07;;;2.70;;
20449;SDS011;10384;51.940;8.432;2023-02-01T01:09:38;14.93;;;2.47;;
20449;SDS011;10384;51.940;8.432;2023-02-01T01:12:04;9.43;;;2.20;;
20449;SDS011;10384;51.940;8.432;2023-02-01T01:14:30;8.47;;;2.20;;
20449;SDS011;10384;51.940;8.432;2023-02-01T01:16:56;13.03;;;2.33;;
20449;SDS011;10384;51.940;8.432;2023-02-01T01:19:22;11.80;;;2.10;;
20449;SDS011;10384;51.940;8.432;2023-02-01T01:21:48;14.90;;;2.40;;
20449;SDS011;10384;51.940;8.432;2023-02-01T01:24:14;10.63;;;2.40;;
20449;SDS011;10384;51.940;8.432;2023-02-01T01:26:40;14.87;;;2.20;;
20449;SDS011;10384;51.940;8.432;2023-02-01T01:29:06;12.40;;;2.30;;
20449;SDS011;10384;51.940;8.432;2023-02-01T01:31:32;12.47;;;2.50;;
20449;SDS011;10384;51.940;8.432;2023-02-01T01:33:58;11.77;;;2.43;;
20449;SDS011;10384;51.940;8.432;2023-02-01T01:36:25;11.27;;;2.40;;
20449;SDS011;10384;51.940;8.432;2023-02-01T01:38:51;17.10;;;2.50;;
20449;SDS011;10384;51.940;8.432;2023-02-01T01:41:22;18.83;;;2.60;;
20449;SDS011;10384;51.940;8.432;2023-02-01T01:43:56;9.60;;;2.40;;
20449;SDS011;10384;51.940;8.432;2023-02-01T01:46:23;19.53;;;2.90;;
20449;SDS011;10384;51.940;8.432;2023-02-01T01:48:52;16.97;;;2.23;;
20449;SDS011;10384;51.940;8.432;2023-02-01T01:51:20;13.07;;;1.87;;
20449;SDS011;10384;51.940;8.432;2023-02-01T01:53:57;10.43;;;2.50;;
20449;SDS011;10384;51.940;8.432;2023-02-01T01:56:25;13.93;;;2.57;;
20449;SDS011;10384;51.940;8.432;2023-02-01T01:58:52;11.13;;;2.53;;
20449;SDS011;10384;51.940;8.432;2023-02-01T02:01:19;16.93;;;2.57;;
20449;SDS011;10384;51.940;8.432;2023-02-01T02:03:45;16.27;;;2.57;;
20449;SDS011;10384;51.940;8.432;2023-02-01T02:06:56;16.30;;;3.10;;
20449;SDS011;10384;51.940;8.432;2023-02-01T02:09:02;12.47;;;2.50;;
20449;SDS011;10384;51.940;8.432;2023-02-01T02:11:28;13.87;;;2.80;;
20449;SDS011;10384;51.940;8.432;2023-02-01T02:13:54;9.83;;;2.90;;
20449;SDS011;10384;51.940;8.432;2023-02-01T02:18:55;14.90;;;2.77;;
20449;SDS011;10384;51.940;8.432;2023-02-01T02:24:59;14.20;;;2.37;;
20449;SDS011;10384;51.940;8.432;2023-02-01T02:27:00;21.57;;;3.30;;
20449;SDS011;10384;51.940;8.432;2023-02-01T02:29:51;10.53;;;2.67;;
20449;SDS011;10384;51.940;8.432;2023-02-01T02:42:27;12.43;;;2.33;;
20449;SDS011;10384;51.940;8.432;2023-02-01T02:45:21;13.30;;;2.57;;
20449;SDS011;10384;51.940;8.432;2023-02-01T02:48:12;12.47;;;2.33;;
20449;SDS011;10384;51.940;8.432;2023-02-01T02:53:30;14.07;;;2.30;;
20449;SDS011;10384;51.940;8.432;2023-02-01T02:56:16;8.03;;;1.90;;
20449;SDS011;10384;51.940;8.432;2023-02-01T02:59:03;9.57;;;1.77;;
20449;SDS011;10384;51.940;8.432;2023-02-01T03:01:48;12.27;;;2.17;;
20449;SDS011;10384;51.940;8.432;2023-02-01T03:04:33;15.43;;;2.37;;
20449;SDS011;10384;51.940;8.432;2023-02-01T03:07:11;9.33;;;2.10;;
20449;SDS011;10384;51.940;8.432;2023-02-01T03:09:37;12.63;;;2.63;;
20449;SDS011;10384;51.940;8.432;2023-02-01T03:12:07;12.20;;;2.00;;
20449;SDS011;10384;51.940;8.432;2023-02-01T03:14:55;7.87;;;1.93;;
20449;SDS011;10384;51.940;8.432;2023-02-01T03:17:27;9.80;;;1.90;;
20449;SDS011;10384;51.940;8.432;2023-02-01T03:19:55;15.60;;;2.40;;
20449;SDS011;10384;51.940;8.432;2023-02-01T03:22:26;12.10;;;1.90;;
20449;SDS011;10384;51.940;8.432;2023-02-01T03:24:58;12.17;;;2.20;;
20449;SDS011;10384;51.940;8.432;2023-02-01T03:27:30;13.30;;;2.33;;
20449;SDS011;10384;51.940;8.432;2023-02-01T03:32:31;16.27;;;2.37;;
20449;SDS011;10384;51.940;8.432;2023-02-01T03:35:17;11.67;;;1.77;;
20449;SDS011;10384;51.940;8.432;2023-02-01T03:37:43;14.50;;;2.93;;
20449;SDS011;10384;51.940;8.432;2023-02-01T03:40:09;9.20;;;1.70;;
20449;SDS011;10384;51.940;8.432;2023-02-01T03:42:38;12.67;;;1.70;;
20449;SDS011;10384;51.940;8.432;2023-02-01T03:45:20;8.73;;;1.40;;
20449;SDS011;10384;51.940;8.432;2023-02-01T03:47:49;12.93;;;2.03;;
20449;SDS011;10384;51.940;8.432;2023-02-01T03:50:19;11.17;;;2.17;;
20449;SDS011;10384;51.940;8.432;2023-02-01T03:52:48;8.73;;;1.43;;
20449;SDS011;10384;51.940;8.432;2023-02-01T03:55:17;7.07;;;1.50;;
20449;SDS011;10384;51.940;8.432;2023-02-01T03:57:46;9.53;;;1.50;;
20449;SDS011;10384;51.940;8.432;2023-02-01T04:02:41;10.77;;;1.83;;
20449;SDS011;10384;51.940;8.432;2023-02-01T04:05:07;9.50;;;1.80;;
20449;SDS011;10384;51.940;8.432;2023-02-01T04:07:33;13.70;;;1.97;;
20449;SDS011;10384;51.940;8.432;2023-02-01T04:09:59;11.13;;;1.90;;
20449;SDS011;10384;51.940;8.432;2023-02-01T04:12:25;8.00;;;1.53;;
20449;SDS011;10384;51.940;8.432;2023-02-01T04:14:51;9.30;;;2.17;;
20449;SDS011;10384;51.940;8.432;2023-02-01T04:17:17;10.60;;;2.10;;
20449;SDS011;10384;51.940;8.432;2023-02-01T04:19:43;10.63;;;2.13;;
20449;SDS011;10384;51.940;8.432;2023-02-01T04:22:09;8.53;;;2.10;;
20449;SDS011;10384;51.940;8.432;2023-02-01T04:24:35;15.03;;;2.23;;
20449;SDS011;10384;51.940;8.432;2023-02-01T04:27:01;7.60;;;2.23;;
20449;SDS011;10384;51.940;8.432;2023-02-01T04:29:27;13.80;;;1.70;;
20449;SDS011;10384;51.940;8.432;2023-02-01T04:31:53;7.93;;;1.47;;
20449;SDS011;10384;51.940;8.432;2023-02-01T04:34:19;13.87;;;2.27;;
20449;SDS011;10384;51.940;8.432;2023-02-01T04:36:47;8.40;;;1.80;;
20449;SDS011;10384;51.940;8.432;2023-02-01T04:39:13;9.27;;;1.97;;
20449;SDS011;10384;51.940;8.432;2023-02-01T04:41:39;12.03;;;1.87;;
20449;SDS011;10384;51.940;8.432;2023-02-01T04:44:06;11.40;;;1.63;;
20449;SDS011;10384;51.940;8.432;2023-02-01T04:46:31;12.53;;;1.67;;
20449;SDS011;10384;51.940;8.432;2023-02-01T04:48:57;10.90;;;1.80;;
20449;SDS011;10384;51.940;8.432;2023-02-01T04:51:23;10.23;;;2.20;;
20449;SDS011;10384;51.940;8.432;2023-02-01T04:53:49;10.93;;;1.70;;
20449;SDS011;10384;51.940;8.432;2023-02-01T04:56:15;3.87;;;1.53;;
20449;SDS011;10384;51.940;8.432;2023-02-01T04:58:41;8.97;;;1.60;;
20449;SDS011;10384;51.940;8.432;2023-02-01T05:01:07;14.97;;;2.40;;
20449;SDS011;10384;51.940;8.432;2023-02-01T05:03:33;15.20;;;2.10;;
20449;SDS011;10384;51.940;8.432;2023-02-01T05:05:59;10.93;;;2.07;;
20449;SDS011;10384;51.940;8.432;2023-02-01T05:08:26;13.13;;;2.33;;
20449;SDS011;10384;51.940;8.432;2023-02-01T05:10:52;15.57;;;1.93;;
20449;SDS011;10384;51.940;8.432;2023-02-01T05:13:18;12.70;;;1.53;;
20449;SDS011;10384;51.940;8.432;2023-02-01T05:16:03;13.83;;;2.10;;
20449;SDS011;10384;51.940;8.432;2023-02-01T05:18:29;15.87;;;2.17;;
20449;SDS011;10384;51.940;8.432;2023-02-01T05:20:55;14.40;;;1.90;;
20449;SDS011;10384;51.940;8.432;2023-02-01T05:23:21;17.67;;;2.10;;
20449;SDS011;10384;51.940;8.432;2023-02-01T05:25:47;8.30;;;2.50;;
20449;SDS011;10384;51.940;8.432;2023-02-01T05:28:12;10.67;;;2.00;;
20449;SDS011;10384;51.940;8.432;2023-02-01T05:30:38;14.33;;;2.00;;
20449;SDS011;10384;51.940;8.432;2023-02-01T05:33:04;13.47;;;1.97;;
20449;SDS011;10384;51.940;8.432;2023-02-01T05:35:30;8.07;;;1.87;;
20449;SDS011;10384;51.940;8.432;2023-02-01T05:37:56;14.27;;;2.13;;
20449;SDS011;10384;51.940;8.432;2023-02-01T05:40:22;9.00;;;2.27;;
20449;SDS011;10384;51.940;8.432;2023-02-01T05:42:48;9.07;;;1.90;;
20449;SDS011;10384;51.940;8.432;2023-02-01T05:45:14;9.63;;;2.17;;
20449;SDS011;10384;51.940;8.432;2023-02-01T05:47:40;7.63;;;1.47;;
20449;SDS011;10384;51.940;8.432;2023-02-01T05:50:06;14.97;;;2.07;;
20449;SDS011;10384;51.940;8.432;2023-02-01T05:52:32;13.77;;;2.17;;
20449;SDS011;10384;51.940;8.432;2023-02-01T05:54:58;11.50;;;2.07;;
20449;SDS011;10384;51.940;8.432;2023-02-01T05:57:24;14.00;;;2.23;;
20449;SDS011;10384;51.940;8.432;2023-02-01T05:59:50;6.33;;;1.60;;
20449;SDS011;10384;51.940;8.432;2023-02-01T06:02:16;10.70;;;2.70;;
20449;SDS011;10384;51.940;8.432;2023-02-01T06:04:42;7.33;;;1.97;;
20449;SDS011;10384;51.940;8.432;2023-02-01T06:07:08;14.83;;;2.07;;
20449;SDS011;10384;51.940;8.432;2023-02-01T06:09:35;11.27;;;2.20;;
20449;SDS011;10384;51.940;8.432;2023-02-01T06:12:02;10.80;;;2.10;;
20449;SDS011;10384;51.940;8.432;2023-02-01T06:14:28;8.03;;;2.10;;
20449;SDS011;10384;51.940;8.432;2023-02-01T06:16:54;9.80;;;1.70;;
20449;SDS011;10384;51.940;8.432;2023-02-01T06:19:21;14.40;;;1.93;;
20449;SDS011;10384;51.940;8.432;2023-02-01T06:21:47;9.87;;;1.80;;
20449;SDS011;10384;51.940;8.432;2023-02-01T06:24:13;17.47;;;2.57;;
20449;SDS011;10384;51.940;8.432;2023-02-01T06:26:39;16.93;;;2.17;;
20449;SDS011;10384;51.940;8.432;2023-02-01T06:29:05;14.43;;;2.13;;
20449;SDS011;10384;51.940;8.432;2023-02-01T06:31:31;10.37;;;2.20;;
20449;SDS011;10384;51.940;8.432;2023-02-01T06:33:57;10.63;;;2.70;;
20449;SDS011;10384;51.940;8.432;2023-02-01T06:36:23;10.10;;;1.90;;
20449;SDS011;10384;51.940;8.432;2023-02-01T06:38:49;14.57;;;2.20;;
20449;SDS011;10384;51.940;8.432;2023-02-01T06:41:15;7.87;;;2.27;;
20449;SDS011;10384;51.940;8.432;2023-02-01T06:43:41;13.40;;;2.20;;
20449;SDS011;10384;51.940;8.432;2023-02-01T06:46:09;9.60;;;1.83;;
20449;SDS011;10384;51.940;8.432;2023-02-01T06:48:36;7.33;;;1.83;;
20449;SDS011;10384;51.940;8.432;2023-02-01T06:51:02;8.67;;;2.30;;
20449;SDS011;10384;51.940;8.432;2023-02-01T06:53:29;9.20;;;2.13;;
20449;SDS011;10384;51.940;8.432;2023-02-01T06:55:56;10.93;;;2.20;;
20449;SDS011;10384;51.940;8.432;2023-02-01T06:58:22;19.27;;;2.40;;
20449;SDS011;10384;51.940;8.432;2023-02-01T07:00:48;10.67;;;2.10;;
20449;SDS011;10384;51.940;8.432;2023-02-01T07:03:15;14.47;;;2.43;;
20449;SDS011;10384;51.940;8.432;2023-02-01T07:05:41;13.07;;;2.60;;
20449;SDS011;10384;51.940;8.432;2023-02-01T07:08:07;12.63;;;2.57;;
20449;SDS011;10384;51.940;8.432;2023-02-01T07:10:34;14.33;;;2.17;;
20449;SDS011;10384;51.940;8.432;2023-02-01T07:13:00;7.10;;;1.70;;
20449;SDS011;10384;51.940;8.432;2023-02-01T07:15:25;15.03;;;2.20;;
20449;SDS011;10384;51.940;8.432;2023-02-01T07:17:54;11.30;;;3.13;;
20449;SDS011;10384;51.940;8.432;2023-02-01T07:20:20;16.93;;;2.20;;
20449;SDS011;10384;51.940;8.432;2023-02-01T07:22:45;17.70;;;3.13;;
20449;SDS011;10384;51.940;8.432;2023-02-01T07:25:11;18.50;;;1.90;;
20449;SDS011;10384;51.940;8.432;2023-02-01T07:27:37;8.03;;;1.63;;
20449;SDS011;10384;51.940;8.432;2023-02-01T07:30:04;12.73;;;2.40;;
20449;SDS011;10384;51.940;8.432;2023-02-01T07:32:30;15.33;;;2.20;;
20449;SDS011;10384;51.940;8.432;2023-02-01T07:34:57;13.80;;;2.40;;
20449;SDS011;10384;51.940;8.432;2023-02-01T07:37:23;9.47;;;2.07;;
20449;SDS011;10384;51.940;8.432;2023-02-01T07:39:52;9.60;;;2.27;;
20449;SDS011;10384;51.940;8.432;2023-02-01T07:42:18;13.70;;;2.33;;
20449;SDS011;10384;51.940;8.432;2023-02-01T07:44:44;17.80;;;2.50;;
20449;SDS011;10384;51.940;8.432;2023-02-01T07:47:10;8.53;;;1.97;;
20449;SDS011;10384;51.940;8.432;2023-02-01T07:49:36;12.40;;;2.30;;
20449;SDS011;10384;51.940;8.432;2023-02-01T07:52:02;8.73;;;2.00;;
20449;SDS011;10384;51.940;8.432;2023-02-01T07:54:28;12.43;;;2.20;;
20449;SDS011;10384;51.940;8.432;2023-02-01T07:56:54;12.83;;;2.07;;
20449;SDS011;10384;51.940;8.432;2023-02-01T07:59:20;10.83;;;2.20;;
20449;SDS011;10384;51.940;8.432;2023-02-01T08:01:46;14.33;;;2.73;;
20449;SDS011;10384;51.940;8.432;2023-02-01T08:04:12;7.10;;;1.50;;
20449;SDS011;10384;51.940;8.432;2023-02-01T08:06:39;16.17;;;2.33;;
20449;SDS011;10384;51.940;8.432;2023-02-01T08:09:05;11.93;;;2.57;;
20449;SDS011;10384;51.940;8.432;2023-02-01T08:11:33;12.73;;;2.03;;
20449;SDS011;10384;51.940;8.432;2023-02-01T08:14:01;9.57;;;1.97;;
20449;SDS011;10384;51.940;8.432;2023-02-01T08:16:27;8.30;;;2.00;;
20449;SDS011;10384;51.940;8.432;2023-02-01T08:18:53;13.10;;;2.47;;
20449;SDS011;10384;51.940;8.432;2023-02-01T08:21:20;11.87;;;2.17;;
20449;SDS011;10384;51.940;8.432;2023-02-01T08:23:47;15.33;;;2.47;;
20449;SDS011;10384;51.940;8.432;2023-02-01T08:28:40;9.47;;;2.17;;
20449;SDS011;10384;51.940;8.432;2023-02-01T08:31:07;19.80;;;2.53;;
20449;SDS011;10384;51.940;8.432;2023-02-01T08:33:34;9.07;;;2.73;;
20449;SDS011;10384;51.940;8.432;2023-02-01T08:36:02;13.67;;;2.40;;
20449;SDS011;10384;51.940;8.432;2023-02-01T08:38:28;13.00;;;2.03;;
20449;SDS011;10384;51.940;8.432;2023-02-01T08:40:54;15.57;;;3.00;;
20449;SDS011;10384;51.940;8.432;2023-02-01T08:43:20;14.47;;;2.43;;
20449;SDS011;10384;51.940;8.432;2023-02-01T08:45:46;14.67;;;2.57;;
20449;SDS011;10384;51.940;8.432;2023-02-01T08:48:12;14.17;;;2.30;;
20449;SDS011;10384;51.940;8.432;2023-02-01T08:50:38;9.57;;;2.27;;
20449;SDS011;10384;51.940;8.432;2023-02-01T08:53:04;12.00;;;2.07;;
20449;SDS011;10384;51.940;8.432;2023-02-01T08:55:30;11.27;;;2.00;;
20449;SDS011;10384;51.940;8.432;2023-02-01T08:57:56;15.80;;;2.30;;
20449;SDS011;10384;51.940;8.432;2023-02-01T09:00:22;5.33;;;2.03;;
20449;SDS011;10384;51.940;8.432;2023-02-01T09:02:48;11.70;;;2.33;;
20449;SDS011;10384;51.940;8.432;2023-02-01T09:05:14;12.03;;;2.00;;
20449;SDS011;10384;51.940;8.432;2023-02-01T09:07:41;12.23;;;1.93;;
20449;SDS011;10384;51.940;8.432;2023-02-01T09:10:07;12.53;;;2.27;;
20449;SDS011;10384;51.940;8.432;2023-02-01T09:12:34;17.27;;;2.70;;
20449;SDS011;10384;51.940;8.432;2023-02-01T09:15:01;11.30;;;2.50;;
20449;SDS011;10384;51.940;8.432;2023-02-01T09:17:27;10.90;;;1.80;;
20449;SDS011;10384;51.940;8.432;2023-02-01T09:19:54;11.77;;;2.30;;
20449;SDS011;10384;51.940;8.432;2023-02-01T09:22:20;9.70;;;1.97;;
20449;SDS011;10384;51.940;8.432;2023-02-01T09:24:46;13.93;;;2.17;;
20449;SDS011;10384;51.940;8.432;2023-02-01T09:27:12;10.33;;;2.20;;
20449;SDS011;10384;51.940;8.432;2023-02-01T09:29:38;11.67;;;2.20;;
20449;SDS011;10384;51.940;8.432;2023-02-01T09:32:04;13.80;;;2.67;;
20449;SDS011;10384;51.940;8.432;2023-02-01T09:34:31;13.67;;;2.23;;
20449;SDS011;10384;51.940;8.432;2023-02-01T09:36:57;8.03;;;2.27;;
20449;SDS011;10384;51.940;8.432;2023-02-01T09:39:23;7.90;;;2.10;;
20449;SDS011;10384;51.940;8.432;2023-02-01T09:44:26;11.13;;;2.10;;
20449;SDS011;10384;51.940;8.432;2023-02-01T09:46:57;12.47;;;2.40;;
20449;SDS011;10384;51.940;8.432;2023-02-01T09:49:35;15.23;;;2.67;;
20449;SDS011;10384;51.940;8.432;2023-02-01T09:52:07;14.17;;;2.50;;
20449;SDS011;10384;51.940;8.432;2023-02-01T09:54:53;11.20;;;2.27;;
20449;SDS011;10384;51.940;8.432;2023-02-01T09:57:24;11.47;;;2.20;;
20449;SDS011;10384;51.940;8.432;2023-02-01T09:59:59;11.03;;;2.40;;
20449;SDS011;10384;51.940;8.432;2023-02-01T10:02:26;13.33;;;2.50;;
20449;SDS011;10384;51.940;8.432;2023-02-01T10:04:54;9.60;;;2.33;;
20449;SDS011;10384;51.940;8.432;2023-02-01T10:10:15;9.87;;;2.10;;
20449;SDS011;10384;51.940;8.432;2023-02-01T10:15:34;15.67;;;2.80;;
20449;SDS011;10384;51.940;8.432;2023-02-01T10:26:18;22.10;;;3.53;;
20449;SDS011;10384;51.940;8.432;2023-02-01T10:28:42;16.37;;;3.03;;
20449;SDS011;10384;51.940;8.432;2023-02-01T10:31:09;17.23;;;3.20;;
20449;SDS011;10384;51.940;8.432;2023-02-01T10:33:42;14.13;;;2.60;;
20449;SDS011;10384;51.940;8.432;2023-02-01T10:38:35;9.87;;;2.40;;
20449;SDS011;10384;51.940;8.432;2023-02-01T10:41:01;13.43;;;2.37;;
20449;SDS011;10384;51.940;8.432;2023-02-01T10:43:28;8.50;;;2.10;;
20449;SDS011;10384;51.940;8.432;2023-02-01T10:45:54;8.43;;;2.53;;
20449;SDS011;10384;51.940;8.432;2023-02-01T10:48:20;9.63;;;2.27;;
20449;SDS011;10384;51.940;8.432;2023-02-01T10:50:53;8.77;;;2.33;;
20449;SDS011;10384;51.940;8.432;2023-02-01T10:56:06;11.10;;;2.40;;
20449;SDS011;10384;51.940;8.432;2023-02-01T10:58:32;15.63;;;2.03;;
20449;SDS011;10384;51.940;8.432;2023-02-01T11:06:09;11.60;;;2.40;;
20449;SDS011;10384;51.940;8.432;2023-02-01T11:08:45;8.47;;;2.83;;
20449;SDS011;10384;51.940;8.432;2023-02-01T11:11:12;17.60;;;2.63;;
20449;SDS011;10384;51.940;8.432;2023-02-01T11:13:39;18.47;;;2.37;;
20449;SDS011;10384;51.940;8.432;2023-02-01T11:16:06;9.70;;;2.00;;
20449;SDS011;10384;51.940;8.432;2023-02-01T11:18:35;8.73;;;2.13;;
20449;SDS011;10384;51.940;8.432;2023-02-01T11:21:01;10.67;;;2.33;;
20449;SDS011;10384;51.940;8.432;2023-02-01T11:23:28;14.27;;;2.57;;
20449;SDS011;10384;51.940;8.432;2023-02-01T11:25:56;8.73;;;2.10;;
20449;SDS011;10384;51.940;8.432;2023-02-01T11:28:24;9.17;;;2.30;;
20449;SDS011;10384;51.940;8.432;2023-02-01T11:30:51;9.13;;;2.23;;
20449;SDS011;10384;51.940;8.432;2023-02-01T11:33:19;11.70;;;2.40;;
20449;SDS011;10384;51.940;8.432;2023-02-01T11:35:47;12.13;;;2.80;;
20449;SDS011;10384;51.940;8.432;2023-02-01T11:38:21;12.43;;;2.63;;
20449;SDS011;10384;51.940;8.432;2023-02-01T11:40:48;12.07;;;2.93;;
20449;SDS011;10384;51.940;8.432;2023-02-01T11:43:25;12.47;;;3.07;;
20449;SDS011;10384;51.940;8.432;2023-02-01T11:48:20;12.53;;;2.30;;
20449;SDS011;10384;51.940;8.432;2023-02-01T12:03:43;12.17;;;2.83;;
20449;SDS011;10384;51.940;8.432;2023-02-01T12:14:23;10.43;;;2.60;;
20449;SDS011;10384;51.940;8.432;2023-02-01T12:19:32;15.13;;;3.77;;
20449;SDS011;10384;51.940;8.432;2023-02-01T12:24:57;18.90;;;3.27;;
20449;SDS011;10384;51.940;8.432;2023-02-01T12:32:46;13.83;;;3.30;;
20449;SDS011;10384;51.940;8.432;2023-02-01T12:35:38;15.50;;;3.37;;
20449;SDS011;10384;51.940;8.432;2023-02-01T12:43:23;11.37;;;3.33;;
20449;SDS011;10384;51.940;8.432;2023-02-01T12:48:50;14.70;;;3.83;;
20449;SDS011;10384;51.940;8.432;2023-02-01T12:51:21;9.57;;;3.03;;
20449;SDS011;10384;51.940;8.432;2023-02-01T12:54:06;13.97;;;3.47;;
20449;SDS011;10384;51.940;8.432;2023-02-01T12:56:42;14.37;;;2.97;;
20449;SDS011;10384;51.940;8.432;2023-02-01T12:59:13;10.90;;;2.53;;
20449;SDS011;10384;51.940;8.432;2023-02-01T13:01:49;10.80;;;3.10;;
20449;SDS011;10384;51.940;8.432;2023-02-01T13:04:33;11.20;;;2.60;;
20449;SDS011;10384;51.940;8.432;2023-02-01T13:07:14;14.67;;;3.07;;
20449;SDS011;10384;51.940;8.432;2023-02-01T13:09:41;12.93;;;3.13;;
20449;SDS011;10384;51.940;8.432;2023-02-01T13:12:19;7.57;;;2.67;;
20449;SDS011;10384;51.940;8.432;2023-02-01T13:14:48;8.63;;;2.53;;
20449;SDS011;10384;51.940;8.432;2023-02-01T13:17:19;5.40;;;2.53;;
20449;SDS011;10384;51.940;8.432;2023-02-01T13:19:49;13.63;;;2.77;;
20449;SDS011;10384;51.940;8.432;2023-02-01T13:22:19;11.27;;;2.93;;
20449;SDS011;10384;51.940;8.432;2023-02-01T13:24:54;8.17;;;2.70;;
20449;SDS011;10384;51.940;8.432;2023-02-01T13:27:21;12.17;;;2.77;;
20449;SDS011;10384;51.940;8.432;2023-02-01T13:29:55;14.63;;;3.00;;
20449;SDS011;10384;51.940;8.432;2023-02-01T13:37:18;13.97;;;2.57;;
20449;SDS011;10384;51.940;8.432;2023-02-01T13:42:16;14.50;;;3.53;;
20449;SDS011;10384;51.940;8.432;2023-02-01T13:49:41;10.17;;;2.53;;
20449;SDS011;10384;51.940;8.432;2023-02-01T13:52:17;7.50;;;2.20;;
20449;SDS011;10384;51.940;8.432;2023-02-01T13:54:46;10.03;;;2.27;;
20449;SDS011;10384;51.940;8.432;2023-02-01T13:57:32;10.10;;;2.57;;
20449;SDS011;10384;51.940;8.432;2023-02-01T14:00:23;9.60;;;2.60;;
20449;SDS011;10384;51.940;8.432;2023-02-01T14:02:50;7.57;;;2.00;;
20449;SDS011;10384;51.940;8.432;2023-02-01T14:10:49;12.60;;;2.73;;
20449;SDS011;10384;51.940;8.432;2023-02-01T14:23:47;8.87;;;2.67;;
20449;SDS011;10384;51.940;8.432;2023-02-01T14:26:14;13.10;;;2.67;;
20449;SDS011;10384;51.940;8.432;2023-02-01T14:28:50;16.97;;;2.80;;
20449;SDS011;10384;51.940;8.432;2023-02-01T14:31:30;13.30;;;2.50;;
20449;SDS011;10384;51.940;8.432;2023-02-01T14:33:57;8.93;;;2.53;;
20449;SDS011;10384;51.940;8.432;2023-02-01T14:36:24;13.37;;;2.53;;
20449;SDS011;10384;51.940;8.432;2023-02-01T14:38:50;29.40;;;3.83;;
20449;SDS011;10384;51.940;8.432;2023-02-01T14:47:28;7.23;;;1.90;;
20449;SDS011;10384;51.940;8.432;2023-02-01T14:49:22;7.10;;;1.70;;
20449;SDS011;10384;51.940;8.432;2023-02-01T14:51:49;7.60;;;1.70;;
20449;SDS011;10384;51.940;8.432;2023-02-01T14:54:16;6.57;;;1.80;;
20449;SDS011;10384;51.940;8.432;2023-02-01T14:56:44;9.90;;;2.00;;
20449;SDS011;10384;51.940;8.432;2023-02-01T14:59:12;9.87;;;2.00;;
20449;SDS011;10384;51.940;8.432;2023-02-01T15:01:46;7.03;;;2.10;;
20449;SDS011;10384;51.940;8.432;2023-02-01T15:04:15;8.50;;;2.20;;
20449;SDS011;10384;51.940;8.432;2023-02-01T15:06:56;5.27;;;1.70;;
20449;SDS011;10384;51.940;8.432;2023-02-01T15:12:27;9.87;;;2.70;;
20449;SDS011;10384;51.940;8.432;2023-02-01T15:17:31;5.13;;;1.67;;
20449;SDS011;10384;51.940;8.432;2023-02-01T15:20:22;3.23;;;0.97;;
20449;SDS011;10384;51.940;8.432;2023-02-01T15:22:57;2.63;;;0.90;;
20449;SDS011;10384;51.940;8.432;2023-02-01T15:25:33;7.13;;;0.90;;
20449;SDS011;10384;51.940;8.432;2023-02-01T15:28:00;2.70;;;1.03;;
20449;SDS011;10384;51.940;8.432;2023-02-01T15:30:27;4.00;;;1.17;;
20449;SDS011;10384;51.940;8.432;2023-02-01T15:33:07;1.67;;;1.13;;
20449;SDS011;10384;51.940;8.432;2023-02-01T15:35:35;2.93;;;0.93;;
20449;SDS011;10384;51.940;8.432;2023-02-01T15:38:25;7.00;;;1.17;;
20449;SDS011;10384;51.940;8.432;2023-02-01T15:41:40;6.40;;;1.30;;
20449;SDS011;10384;51.940;8.432;2023-02-01T15:46:15;8.93;;;1.30;;
20449;SDS011;10384;51.940;8.432;2023-02-01T15:48:43;8.23;;;1.40;;
20449;SDS011;10384;51.940;8.432;2023-02-01T15:51:13;3.03;;;1.10;;
20449;SDS011;10384;51.940;8.432;2023-02-01T15:53:39;6.83;;;1.93;;
20449;SDS011;10384;51.940;8.432;2023-02-01T15:56:09;6.37;;;1.83;;
20449;SDS011;10384;51.940;8.432;2023-02-01T15:58:35;6.97;;;1.63;;
20449;SDS011;10384;51.940;8.432;2023-02-01T16:01:02;10.27;;;2.00;;
20449;SDS011;10384;51.940;8.432;2023-02-01T16:03:35;8.13;;;1.70;;
20449;SDS011;10384;51.940;8.432;2023-02-01T16:06:06;3.63;;;1.40;;
20449;SDS011;10384;51.940;8.432;2023-02-01T16:08:33;5.80;;;1.43;;
20449;SDS011;10384;51.940;8.432;2023-02-01T16:11:22;7.97;;;1.87;;
20449;SDS011;10384;51.940;8.432;2023-02-01T16:13:46;6.13;;;1.50;;
20449;SDS011;10384;51.940;8.432;2023-02-01T16:16:12;5.10;;;1.60;;
20449;SDS011;10384;51.940;8.432;2023-02-01T16:18:39;5.37;;;1.60;;
20449;SDS011;10384;51.940;8.432;2023-02-01T16:21:05;4.60;;;1.20;;
20449;SDS011;10384;51.940;8.432;2023-02-01T16:23:33;4.80;;;1.20;;
20449;SDS011;10384;51.940;8.432;2023-02-01T16:25:59;7.97;;;1.30;;
20449;SDS011;10384;51.940;8.432;2023-02-01T16:28:25;9.87;;;1.40;;
20449;SDS011;10384;51.940;8.432;2023-02-01T16:30:51;3.23;;;1.17;;
20449;SDS011;10384;51.940;8.432;2023-02-01T16:33:18;8.03;;;1.60;;
20449;SDS011;10384;51.940;8.432;2023-02-01T16:35:46;8.63;;;1.90;;
20449;SDS011;10384;51.940;8.432;2023-02-01T16:38:14;3.77;;;1.60;;
20449;SDS011;10384;51.940;8.432;2023-02-01T16:40:43;5.87;;;1.70;;
20449;SDS011;10384;51.940;8.432;2023-02-01T16:43:13;12.10;;;1.57;;
20449;SDS011;10384;51.940;8.432;2023-02-01T16:45:40;6.33;;;1.90;;
20449;SDS011;10384;51.940;8.432;2023-02-01T16:48:10;8.33;;;1.60;;
20449;SDS011;10384;51.940;8.432;2023-02-01T16:50:41;9.40;;;2.07;;
20449;SDS011;10384;51.940;8.432;2023-02-01T16:53:08;5.43;;;1.70;;
20449;SDS011;10384;51.940;8.432;2023-02-01T16:55:36;8.27;;;1.73;;
20449;SDS011;10384;51.940;8.432;2023-02-01T16:58:02;8.93;;;2.27;;
20449;SDS011;10384;51.940;8.432;2023-02-01T17:00:28;7.77;;;2.07;;
20449;SDS011;10384;51.940;8.432;2023-02-01T17:02:56;13.50;;;1.90;;
20449;SDS011;10384;51.940;8.432;2023-02-01T17:05:22;8.83;;;2.03;;
20449;SDS011;10384;51.940;8.432;2023-02-01T17:07:48;7.87;;;1.70;;
20449;SDS011;10384;51.940;8.432;2023-02-01T17:10:18;10.63;;;1.90;;